sensor_id;sensor_type;location;lat;lon;timestamp;temperature;humidity
66608;DHT22;53462;39.616;8.824;2023-12-29T00:01:59;9.40;99.90
66608;DHT22;53462;39.616;8.824;2023-12-29T00:04:26;9.50;99.90
66608;DHT22;53462;39.616;8.824;2023-12-29T00:06:52;9.40;99.90
66608;DHT22;53462;39.616;8.824;2023-12-29T00:09:18;9.30;99.90
66608;DHT22;53462;39.616;8.824;2023-12-29T00:11:50;9.30;99.90
66608;DHT22;53462;39.616;8.824;2023-12-29T00:14:17;9.30;99.90
66608;DHT22;53462;39.616;8.824;2023-12-29T00:16:43;9.10;99.90
66608;DHT22;53462;39.616;8.824;2023-12-29T00:19:12;9.00;99.90
66608;DHT22;53462;39.616;8.824;2023-12-29T00:21:38;9.00;99.90
66608;DHT22;53462;39.616;8.824;2023-12-29T00:24:05;9.10;99.90
66608;DHT22;53462;39.616;8.824;2023-12-29T00:26:31;9.10;99.90
66608;DHT22;53462;39.616;8.824;2023-12-29T00:28:57;9.10;99.90
66608;DHT22;53462;39.616;8.824;2023-12-29T00:31:23;9.10;99.90
66608;DHT22;53462;39.616;8.824;2023-12-29T00:33:51;9.10;99.90
66608;DHT22;53462;39.616;8.824;2023-12-29T00:36:19;9.10;99.90
66608;DHT22;53462;39.616;8.824;2023-12-29T00:38:45;9.20;99.90
66608;DHT22;53462;39.616;8.824;2023-12-29T00:41:12;9.20;99.90
66608;DHT22;53462;39.616;8.824;2023-12-29T00:43:38;9.20;99.90
66608;DHT22;53462;39.616;8.824;2023-12-29T00:46:04;9.40;99.90
66608;DHT22;53462;39.616;8.824;2023-12-29T00:48:31;9.50;99.90
66608;DHT22;53462;39.616;8.824;2023-12-29T00:50:57;9.50;99.90
66608;DHT22;53462;39.616;8.824;2023-12-29T00:53:23;9.60;99.90
66608;DHT22;53462;39.616;8.824;2023-12-29T00:55:49;9.50;99.90
66608;DHT22;53462;39.616;8.824;2023-12-29T00:58:15;9.50;99.90
66608;DHT22;53462;39.616;8.824;2023-12-29T01:00:41;9.60;99.90
66608;DHT22;53462;39.616;8.824;2023-12-29T01:03:07;9.50;99.90
66608;DHT22;53462;39.616;8.824;2023-12-29T01:05:33;9.40;99.90
66608;DHT22;53462;39.616;8.824;2023-12-29T01:07:59;9.30;99.90
66608;DHT22;53462;39.616;8.824;2023-12-29T01:10:25;9.10;99.90
66608;DHT22;53462;39.616;8.824;2023-12-29T01:12:50;9.10;99.90
66608;DHT22;53462;39.616;8.824;2023-12-29T01:15:16;9.20;99.90
66608;DHT22;53462;39.616;8.824;2023-12-29T01:17:43;9.40;99.90
66608;DHT22;53462;39.616;8.824;2023-12-29T01:20:09;9.60;99.90
66608;DHT22;53462;39.616;8.824;2023-12-29T01:22:35;9.60;99.90
66608;DHT22;53462;39.616;8.824;2023-12-29T01:25:02;9.60;99.90
66608;DHT22;53462;39.616;8.824;2023-12-29T01:27:29;9.70;99.90
66608;DHT22;53462;39.616;8.824;2023-12-29T01:29:55;9.70;99.90
66608;DHT22;53462;39.616;8.824;2023-12-29T01:32:21;9.80;99.90
66608;DHT22;53462;39.616;8.824;2023-12-29T01:34:48;10.00;99.90
66608;DHT22;53462;39.616;8.824;2023-12-29T01:37:14;10.00;99.90
66608;DHT22;53462;39.616;8.824;2023-12-29T01:39:39;10.10;99.90
66608;DHT22;53462;39.616;8.824;2023-12-29T01:42:06;10.10;99.90
66608;DHT22;53462;39.616;8.824;2023-12-29T01:44:32;10.10;99.90
66608;DHT22;53462;39.616;8.824;2023-12-29T01:47:03;10.10;99.90
66608;DHT22;53462;39.616;8.824;2023-12-29T01:49:33;10.20;99.90
66608;DHT22;53462;39.616;8.824;2023-12-29T01:52:00;10.30;99.90
66608;DHT22;53462;39.616;8.824;2023-12-29T01:54:30;10.30;99.90
66608;DHT22;53462;39.616;8.824;2023-12-29T01:56:59;10.20;99.90
66608;DHT22;53462;39.616;8.824;2023-12-29T01:59:27;10.30;99.90
66608;DHT22;53462;39.616;8.824;2023-12-29T02:01:54;10.30;99.90
66608;DHT22;53462;39.616;8.824;2023-12-29T02:04:27;10.10;99.90
66608;DHT22;53462;39.616;8.824;2023-12-29T02:06:54;10.20;99.90
66608;DHT22;53462;39.616;8.824;2023-12-29T02:09:22;10.30;99.90
66608;DHT22;53462;39.616;8.824;2023-12-29T02:11:48;10.20;99.90
66608;DHT22;53462;39.616;8.824;2023-12-29T02:14:15;10.20;99.90
66608;DHT22;53462;39.616;8.824;2023-12-29T02:19:43;10.20;99.90
66608;DHT22;53462;39.616;8.824;2023-12-29T02:22:11;10.30;99.90
66608;DHT22;53462;39.616;8.824;2023-12-29T02:24:37;10.40;99.90
66608;DHT22;53462;39.616;8.824;2023-12-29T02:29:33;10.50;99.90
66608;DHT22;53462;39.616;8.824;2023-12-29T02:32:00;10.50;99.90
66608;DHT22;53462;39.616;8.824;2023-12-29T02:34:28;10.50;99.90
66608;DHT22;53462;39.616;8.824;2023-12-29T02:36:56;10.40;99.90
66608;DHT22;53462;39.616;8.824;2023-12-29T02:39:23;10.20;99.90
66608;DHT22;53462;39.616;8.824;2023-12-29T02:41:49;10.20;99.90
66608;DHT22;53462;39.616;8.824;2023-12-29T02:44:15;10.00;99.90
66608;DHT22;53462;39.616;8.824;2023-12-29T02:46:41;9.90;99.90
66608;DHT22;53462;39.616;8.824;2023-12-29T02:49:07;9.90;99.90
66608;DHT22;53462;39.616;8.824;2023-12-29T02:51:37;9.80;99.90
66608;DHT22;53462;39.616;8.824;2023-12-29T02:54:03;9.80;99.90
66608;DHT22;53462;39.616;8.824;2023-12-29T02:56:31;9.80;99.90
66608;DHT22;53462;39.616;8.824;2023-12-29T02:58:57;9.90;99.90
66608;DHT22;53462;39.616;8.824;2023-12-29T03:01:23;9.90;99.90
66608;DHT22;53462;39.616;8.824;2023-12-29T03:03:49;9.90;99.90
66608;DHT22;53462;39.616;8.824;2023-12-29T03:06:15;10.00;99.90
66608;DHT22;53462;39.616;8.824;2023-12-29T03:08:41;10.10;99.90
66608;DHT22;53462;39.616;8.824;2023-12-29T03:11:07;10.10;99.90
66608;DHT22;53462;39.616;8.824;2023-12-29T03:13:33;10.00;99.90
66608;DHT22;53462;39.616;8.824;2023-12-29T03:15:59;10.10;99.90
66608;DHT22;53462;39.616;8.824;2023-12-29T03:18:25;10.10;99.90
66608;DHT22;53462;39.616;8.824;2023-12-29T03:20:51;10.10;99.90
66608;DHT22;53462;39.616;8.824;2023-12-29T03:23:17;10.00;99.90
66608;DHT22;53462;39.616;8.824;2023-12-29T03:25:43;10.10;99.90
66608;DHT22;53462;39.616;8.824;2023-12-29T03:28:09;10.20;99.90
66608;DHT22;53462;39.616;8.824;2023-12-29T03:30:34;10.00;99.90
66608;DHT22;53462;39.616;8.824;2023-12-29T03:33:00;9.80;99.90
66608;DHT22;53462;39.616;8.824;2023-12-29T03:35:26;9.80;99.90
66608;DHT22;53462;39.616;8.824;2023-12-29T03:37:52;9.80;99.90
66608;DHT22;53462;39.616;8.824;2023-12-29T03:40:18;10.00;99.90
66608;DHT22;53462;39.616;8.824;2023-12-29T03:42:44;10.00;99.90
66608;DHT22;53462;39.616;8.824;2023-12-29T03:45:10;9.90;99.90
66608;DHT22;53462;39.616;8.824;2023-12-29T03:47:36;9.80;99.90
66608;DHT22;53462;39.616;8.824;2023-12-29T03:50:02;9.90;99.90
66608;DHT22;53462;39.616;8.824;2023-12-29T03:52:29;10.00;99.90
66608;DHT22;53462;39.616;8.824;2023-12-29T03:54:55;10.00;99.90
66608;DHT22;53462;39.616;8.824;2023-12-29T03:57:21;9.90;99.90
66608;DHT22;53462;39.616;8.824;2023-12-29T03:59:46;9.90;99.90
66608;DHT22;53462;39.616;8.824;2023-12-29T04:02:12;10.00;99.90
66608;DHT22;53462;39.616;8.824;2023-12-29T04:04:38;10.00;99.90
66608;DHT22;53462;39.616;8.824;2023-12-29T04:07:04;10.00;99.90
66608;DHT22;53462;39.616;8.824;2023-12-29T04:09:31;10.10;99.90
66608;DHT22;53462;39.616;8.824;2023-12-29T04:11:56;10.20;99.90
66608;DHT22;53462;39.616;8.824;2023-12-29T04:14:22;10.10;99.90
66608;DHT22;53462;39.616;8.824;2023-12-29T04:16:48;10.00;99.90
66608;DHT22;53462;39.616;8.824;2023-12-29T04:19:14;10.10;99.90
66608;DHT22;53462;39.616;8.824;2023-12-29T04:21:40;10.20;99.90
66608;DHT22;53462;39.616;8.824;2023-12-29T04:24:06;10.10;99.90
66608;DHT22;53462;39.616;8.824;2023-12-29T04:26:36;10.00;99.90
66608;DHT22;53462;39.616;8.824;2023-12-29T04:29:03;10.10;99.90
66608;DHT22;53462;39.616;8.824;2023-12-29T04:31:29;10.10;99.90
66608;DHT22;53462;39.616;8.824;2023-12-29T04:33:55;10.10;99.90
66608;DHT22;53462;39.616;8.824;2023-12-29T04:36:21;10.10;99.90
66608;DHT22;53462;39.616;8.824;2023-12-29T04:38:47;10.00;99.90
66608;DHT22;53462;39.616;8.824;2023-12-29T04:41:13;10.00;99.90
66608;DHT22;53462;39.616;8.824;2023-12-29T04:43:39;10.00;99.90
66608;DHT22;53462;39.616;8.824;2023-12-29T04:46:05;10.00;99.90
66608;DHT22;53462;39.616;8.824;2023-12-29T04:48:31;10.00;99.90
66608;DHT22;53462;39.616;8.824;2023-12-29T04:50:57;10.00;99.90
66608;DHT22;53462;39.616;8.824;2023-12-29T04:53:23;10.00;99.90
66608;DHT22;53462;39.616;8.824;2023-12-29T04:55:48;10.00;99.90
66608;DHT22;53462;39.616;8.824;2023-12-29T04:58:14;10.10;99.90
66608;DHT22;53462;39.616;8.824;2023-12-29T05:00:40;9.90;99.90
66608;DHT22;53462;39.616;8.824;2023-12-29T05:03:06;9.80;99.90
66608;DHT22;53462;39.616;8.824;2023-12-29T05:05:32;9.70;99.90
66608;DHT22;53462;39.616;8.824;2023-12-29T05:07:58;9.60;99.90
66608;DHT22;53462;39.616;8.824;2023-12-29T05:10:24;9.60;99.90
66608;DHT22;53462;39.616;8.824;2023-12-29T05:12:50;9.50;99.90
66608;DHT22;53462;39.616;8.824;2023-12-29T05:15:16;9.70;99.90
66608;DHT22;53462;39.616;8.824;2023-12-29T05:17:41;9.60;99.90
66608;DHT22;53462;39.616;8.824;2023-12-29T05:20:08;9.70;99.90
66608;DHT22;53462;39.616;8.824;2023-12-29T05:22:34;9.60;99.90
66608;DHT22;53462;39.616;8.824;2023-12-29T05:25:00;9.60;99.90
66608;DHT22;53462;39.616;8.824;2023-12-29T05:27:26;9.50;99.90
66608;DHT22;53462;39.616;8.824;2023-12-29T05:29:52;9.40;99.90
66608;DHT22;53462;39.616;8.824;2023-12-29T05:32:18;9.20;99.90
66608;DHT22;53462;39.616;8.824;2023-12-29T05:34:44;9.10;99.90
66608;DHT22;53462;39.616;8.824;2023-12-29T05:37:10;9.10;99.90
66608;DHT22;53462;39.616;8.824;2023-12-29T05:39:36;9.10;99.90
66608;DHT22;53462;39.616;8.824;2023-12-29T05:42:02;9.00;99.90
66608;DHT22;53462;39.616;8.824;2023-12-29T05:44:28;9.00;99.90
66608;DHT22;53462;39.616;8.824;2023-12-29T05:46:54;9.10;99.90
66608;DHT22;53462;39.616;8.824;2023-12-29T05:49:24;9.10;99.90
66608;DHT22;53462;39.616;8.824;2023-12-29T05:51:51;9.00;99.90
66608;DHT22;53462;39.616;8.824;2023-12-29T05:54:17;9.00;99.90
66608;DHT22;53462;39.616;8.824;2023-12-29T05:56:43;9.00;99.90
66608;DHT22;53462;39.616;8.824;2023-12-29T05:59:09;9.00;99.90
66608;DHT22;53462;39.616;8.824;2023-12-29T06:01:35;9.10;99.90
66608;DHT22;53462;39.616;8.824;2023-12-29T06:04:01;9.20;99.90
66608;DHT22;53462;39.616;8.824;2023-12-29T06:06:27;9.20;99.90
66608;DHT22;53462;39.616;8.824;2023-12-29T06:08:54;9.20;99.90
66608;DHT22;53462;39.616;8.824;2023-12-29T06:11:20;9.20;99.90
66608;DHT22;53462;39.616;8.824;2023-12-29T06:13:46;9.20;99.90
66608;DHT22;53462;39.616;8.824;2023-12-29T06:16:19;9.00;99.90
66608;DHT22;53462;39.616;8.824;2023-12-29T06:18:46;9.00;99.90
66608;DHT22;53462;39.616;8.824;2023-12-29T06:21:12;8.90;99.90
66608;DHT22;53462;39.616;8.824;2023-12-29T06:23:38;8.90;99.90
66608;DHT22;53462;39.616;8.824;2023-12-29T06:26:03;8.90;99.90
66608;DHT22;53462;39.616;8.824;2023-12-29T06:28:29;9.10;99.90
66608;DHT22;53462;39.616;8.824;2023-12-29T06:30:55;9.20;99.90
66608;DHT22;53462;39.616;8.824;2023-12-29T06:33:21;9.30;99.90
66608;DHT22;53462;39.616;8.824;2023-12-29T06:35:48;9.30;99.90
66608;DHT22;53462;39.616;8.824;2023-12-29T06:38:14;9.30;99.90
66608;DHT22;53462;39.616;8.824;2023-12-29T06:40:40;9.40;99.90
66608;DHT22;53462;39.616;8.824;2023-12-29T06:43:06;9.50;99.90
66608;DHT22;53462;39.616;8.824;2023-12-29T06:45:32;9.50;99.90
66608;DHT22;53462;39.616;8.824;2023-12-29T06:47:58;9.60;99.90
66608;DHT22;53462;39.616;8.824;2023-12-29T06:50:24;9.60;99.90
66608;DHT22;53462;39.616;8.824;2023-12-29T06:52:49;9.70;99.90
66608;DHT22;53462;39.616;8.824;2023-12-29T06:55:15;9.60;99.90
66608;DHT22;53462;39.616;8.824;2023-12-29T06:57:41;9.50;99.90
66608;DHT22;53462;39.616;8.824;2023-12-29T07:00:07;9.50;99.90
66608;DHT22;53462;39.616;8.824;2023-12-29T07:02:34;9.70;99.90
66608;DHT22;53462;39.616;8.824;2023-12-29T07:05:03;9.70;99.90
66608;DHT22;53462;39.616;8.824;2023-12-29T07:07:29;9.80;99.90
66608;DHT22;53462;39.616;8.824;2023-12-29T07:09:55;9.90;99.90
66608;DHT22;53462;39.616;8.824;2023-12-29T07:12:21;10.10;99.90
66608;DHT22;53462;39.616;8.824;2023-12-29T07:14:47;10.20;99.90
66608;DHT22;53462;39.616;8.824;2023-12-29T07:17:13;10.30;99.90
66608;DHT22;53462;39.616;8.824;2023-12-29T07:19:39;10.40;99.90
66608;DHT22;53462;39.616;8.824;2023-12-29T07:22:05;10.50;99.90
66608;DHT22;53462;39.616;8.824;2023-12-29T07:24:32;10.60;99.90
66608;DHT22;53462;39.616;8.824;2023-12-29T07:26:58;10.80;99.90
66608;DHT22;53462;39.616;8.824;2023-12-29T07:29:24;11.00;99.90
66608;DHT22;53462;39.616;8.824;2023-12-29T07:31:50;11.10;99.90
66608;DHT22;53462;39.616;8.824;2023-12-29T07:34:16;11.30;99.90
66608;DHT22;53462;39.616;8.824;2023-12-29T07:36:42;11.40;99.90
66608;DHT22;53462;39.616;8.824;2023-12-29T07:39:08;11.20;99.90
66608;DHT22;53462;39.616;8.824;2023-12-29T07:41:39;10.90;99.90
66608;DHT22;53462;39.616;8.824;2023-12-29T07:44:06;10.80;99.90
66608;DHT22;53462;39.616;8.824;2023-12-29T07:46:32;10.90;99.90
66608;DHT22;53462;39.616;8.824;2023-12-29T07:48:58;11.20;99.90
66608;DHT22;53462;39.616;8.824;2023-12-29T07:51:24;11.30;99.90
66608;DHT22;53462;39.616;8.824;2023-12-29T07:53:50;11.40;99.90
66608;DHT22;53462;39.616;8.824;2023-12-29T07:56:16;11.70;99.90
66608;DHT22;53462;39.616;8.824;2023-12-29T07:58:42;12.00;99.90
66608;DHT22;53462;39.616;8.824;2023-12-29T08:01:08;12.10;99.90
66608;DHT22;53462;39.616;8.824;2023-12-29T08:03:34;12.30;99.90
66608;DHT22;53462;39.616;8.824;2023-12-29T08:06:01;12.60;99.90
66608;DHT22;53462;39.616;8.824;2023-12-29T08:08:27;12.40;99.90
66608;DHT22;53462;39.616;8.824;2023-12-29T08:10:53;12.20;99.90
66608;DHT22;53462;39.616;8.824;2023-12-29T08:13:19;12.10;99.90
66608;DHT22;53462;39.616;8.824;2023-12-29T08:15:45;12.30;99.90
66608;DHT22;53462;39.616;8.824;2023-12-29T08:18:11;12.80;99.90
66608;DHT22;53462;39.616;8.824;2023-12-29T08:20:37;13.10;99.90
66608;DHT22;53462;39.616;8.824;2023-12-29T08:23:03;13.00;99.90
66608;DHT22;53462;39.616;8.824;2023-12-29T08:25:29;12.90;99.90
66608;DHT22;53462;39.616;8.824;2023-12-29T08:27:58;13.20;99.90
66608;DHT22;53462;39.616;8.824;2023-12-29T08:30:24;13.70;99.90
66608;DHT22;53462;39.616;8.824;2023-12-29T08:32:50;13.60;99.10
66608;DHT22;53462;39.616;8.824;2023-12-29T08:35:16;13.30;99.40
66608;DHT22;53462;39.616;8.824;2023-12-29T08:37:42;12.80;99.90
66608;DHT22;53462;39.616;8.824;2023-12-29T08:40:08;12.60;99.90
66608;DHT22;53462;39.616;8.824;2023-12-29T08:42:34;12.50;99.90
66608;DHT22;53462;39.616;8.824;2023-12-29T08:45:00;12.30;99.90
66608;DHT22;53462;39.616;8.824;2023-12-29T08:47:26;12.30;99.90
66608;DHT22;53462;39.616;8.824;2023-12-29T08:49:52;12.40;99.90
66608;DHT22;53462;39.616;8.824;2023-12-29T08:52:20;12.20;99.90
66608;DHT22;53462;39.616;8.824;2023-12-29T08:54:46;12.50;99.90
66608;DHT22;53462;39.616;8.824;2023-12-29T08:57:12;12.80;99.90
66608;DHT22;53462;39.616;8.824;2023-12-29T08:59:40;12.50;99.90
66608;DHT22;53462;39.616;8.824;2023-12-29T09:02:06;12.10;99.90
66608;DHT22;53462;39.616;8.824;2023-12-29T09:04:32;11.70;99.90
66608;DHT22;53462;39.616;8.824;2023-12-29T09:06:58;11.70;99.90
66608;DHT22;53462;39.616;8.824;2023-12-29T09:09:24;11.70;99.90
66608;DHT22;53462;39.616;8.824;2023-12-29T09:11:50;11.80;99.90
66608;DHT22;53462;39.616;8.824;2023-12-29T09:14:15;11.80;99.90
66608;DHT22;53462;39.616;8.824;2023-12-29T09:16:42;11.70;99.90
66608;DHT22;53462;39.616;8.824;2023-12-29T09:19:08;11.70;99.90
66608;DHT22;53462;39.616;8.824;2023-12-29T09:21:34;11.70;99.90
66608;DHT22;53462;39.616;8.824;2023-12-29T09:24:00;11.70;99.90
66608;DHT22;53462;39.616;8.824;2023-12-29T09:26:26;11.60;99.90
66608;DHT22;53462;39.616;8.824;2023-12-29T09:28:52;11.60;99.90
66608;DHT22;53462;39.616;8.824;2023-12-29T09:31:18;11.60;99.90
66608;DHT22;53462;39.616;8.824;2023-12-29T09:33:44;11.70;99.90
66608;DHT22;53462;39.616;8.824;2023-12-29T09:36:09;11.80;99.90
66608;DHT22;53462;39.616;8.824;2023-12-29T09:38:35;11.80;99.90
66608;DHT22;53462;39.616;8.824;2023-12-29T09:41:05;11.70;99.90
66608;DHT22;53462;39.616;8.824;2023-12-29T09:43:36;11.80;99.90
66608;DHT22;53462;39.616;8.824;2023-12-29T09:46:03;11.80;99.90
66608;DHT22;53462;39.616;8.824;2023-12-29T09:48:31;11.90;99.90
66608;DHT22;53462;39.616;8.824;2023-12-29T09:50:59;12.10;99.90
66608;DHT22;53462;39.616;8.824;2023-12-29T09:53:26;12.20;99.90
66608;DHT22;53462;39.616;8.824;2023-12-29T09:55:54;13.20;99.90
66608;DHT22;53462;39.616;8.824;2023-12-29T09:58:22;13.80;99.90
66608;DHT22;53462;39.616;8.824;2023-12-29T10:00:51;14.10;99.90
66608;DHT22;53462;39.616;8.824;2023-12-29T10:03:17;14.70;99.90
66608;DHT22;53462;39.616;8.824;2023-12-29T10:05:49;15.30;96.00
66608;DHT22;53462;39.616;8.824;2023-12-29T10:08:16;16.40;90.80
66608;DHT22;53462;39.616;8.824;2023-12-29T10:10:42;16.20;90.90
66608;DHT22;53462;39.616;8.824;2023-12-29T10:13:10;19.90;85.40
66608;DHT22;53462;39.616;8.824;2023-12-29T10:16:08;21.80;68.60
66608;DHT22;53462;39.616;8.824;2023-12-29T10:18:45;23.30;61.20
66608;DHT22;53462;39.616;8.824;2023-12-29T10:21:37;21.70;65.10
66608;DHT22;53462;39.616;8.824;2023-12-29T10:24:15;19.10;74.30
66608;DHT22;53462;39.616;8.824;2023-12-29T10:26:43;17.60;80.00
66608;DHT22;53462;39.616;8.824;2023-12-29T10:29:10;20.30;75.40
66608;DHT22;53462;39.616;8.824;2023-12-29T10:31:37;22.40;65.30
66608;DHT22;53462;39.616;8.824;2023-12-29T10:34:23;22.50;65.00
66608;DHT22;53462;39.616;8.824;2023-12-29T10:37:00;22.10;65.20
66608;DHT22;53462;39.616;8.824;2023-12-29T10:39:29;22.50;66.60
66608;DHT22;53462;39.616;8.824;2023-12-29T10:42:05;23.60;62.20
66608;DHT22;53462;39.616;8.824;2023-12-29T10:44:36;26.20;55.40
66608;DHT22;53462;39.616;8.824;2023-12-29T10:47:09;26.40;55.70
66608;DHT22;53462;39.616;8.824;2023-12-29T10:49:36;26.90;52.10
66608;DHT22;53462;39.616;8.824;2023-12-29T10:52:11;26.70;52.00
66608;DHT22;53462;39.616;8.824;2023-12-29T10:54:38;22.70;60.70
66608;DHT22;53462;39.616;8.824;2023-12-29T10:57:04;20.80;68.70
66608;DHT22;53462;39.616;8.824;2023-12-29T10:59:30;20.20;70.10
66608;DHT22;53462;39.616;8.824;2023-12-29T11:01:56;20.90;70.80
66608;DHT22;53462;39.616;8.824;2023-12-29T11:04:22;20.70;67.10
66608;DHT22;53462;39.616;8.824;2023-12-29T11:06:49;18.40;76.30
66608;DHT22;53462;39.616;8.824;2023-12-29T11:09:30;16.90;83.50
66608;DHT22;53462;39.616;8.824;2023-12-29T11:12:00;16.90;85.00
66608;DHT22;53462;39.616;8.824;2023-12-29T11:14:26;16.80;85.30
66608;DHT22;53462;39.616;8.824;2023-12-29T11:16:54;16.80;86.40
66608;DHT22;53462;39.616;8.824;2023-12-29T11:19:28;17.50;85.40
66608;DHT22;53462;39.616;8.824;2023-12-29T11:21:55;17.80;79.50
66608;DHT22;53462;39.616;8.824;2023-12-29T11:24:22;22.60;66.60
66608;DHT22;53462;39.616;8.824;2023-12-29T11:26:51;24.80;56.30
66608;DHT22;53462;39.616;8.824;2023-12-29T11:29:18;24.30;54.30
66608;DHT22;53462;39.616;8.824;2023-12-29T11:31:50;21.20;64.10
66608;DHT22;53462;39.616;8.824;2023-12-29T11:34:28;19.10;70.30
66608;DHT22;53462;39.616;8.824;2023-12-29T11:37:12;17.80;77.70
66608;DHT22;53462;39.616;8.824;2023-12-29T11:39:54;18.90;75.70
66608;DHT22;53462;39.616;8.824;2023-12-29T11:42:30;19.20;73.40
66608;DHT22;53462;39.616;8.824;2023-12-29T11:44:57;18.50;76.30
66608;DHT22;53462;39.616;8.824;2023-12-29T11:47:38;18.00;78.90
66608;DHT22;53462;39.616;8.824;2023-12-29T11:50:05;18.50;77.60
66608;DHT22;53462;39.616;8.824;2023-12-29T11:52:38;18.80;77.20
66608;DHT22;53462;39.616;8.824;2023-12-29T11:55:12;19.00;76.00
66608;DHT22;53462;39.616;8.824;2023-12-29T11:57:39;18.90;76.80
66608;DHT22;53462;39.616;8.824;2023-12-29T12:00:07;19.00;75.30
66608;DHT22;53462;39.616;8.824;2023-12-29T12:02:38;17.70;80.00
66608;DHT22;53462;39.616;8.824;2023-12-29T12:05:04;17.30;82.70
66608;DHT22;53462;39.616;8.824;2023-12-29T12:12:47;17.00;84.90
66608;DHT22;53462;39.616;8.824;2023-12-29T12:15:38;17.20;84.90
66608;DHT22;53462;39.616;8.824;2023-12-29T12:18:05;16.90;86.10
66608;DHT22;53462;39.616;8.824;2023-12-29T12:20:35;16.90;86.50
66608;DHT22;53462;39.616;8.824;2023-12-29T12:23:10;16.80;85.20
66608;DHT22;53462;39.616;8.824;2023-12-29T12:25:39;16.60;88.00
66608;DHT22;53462;39.616;8.824;2023-12-29T12:28:06;16.70;87.70
66608;DHT22;53462;39.616;8.824;2023-12-29T12:30:35;16.60;88.20
66608;DHT22;53462;39.616;8.824;2023-12-29T12:33:02;17.20;88.00
66608;DHT22;53462;39.616;8.824;2023-12-29T12:35:29;17.60;85.80
66608;DHT22;53462;39.616;8.824;2023-12-29T12:38:13;17.70;84.10
66608;DHT22;53462;39.616;8.824;2023-12-29T12:40:40;17.90;83.40
66608;DHT22;53462;39.616;8.824;2023-12-29T12:43:06;17.20;86.50
66608;DHT22;53462;39.616;8.824;2023-12-29T12:45:42;16.80;87.30
66608;DHT22;53462;39.616;8.824;2023-12-29T12:48:14;16.20;89.00
66608;DHT22;53462;39.616;8.824;2023-12-29T12:50:45;16.20;91.00
66608;DHT22;53462;39.616;8.824;2023-12-29T12:53:13;16.30;90.80
66608;DHT22;53462;39.616;8.824;2023-12-29T12:55:50;16.10;90.80
66608;DHT22;53462;39.616;8.824;2023-12-29T12:58:17;16.10;91.70
66608;DHT22;53462;39.616;8.824;2023-12-29T13:00:45;16.10;91.40
66608;DHT22;53462;39.616;8.824;2023-12-29T13:03:11;16.00;91.40
66608;DHT22;53462;39.616;8.824;2023-12-29T13:05:37;16.10;91.90
66608;DHT22;53462;39.616;8.824;2023-12-29T13:08:04;16.00;91.80
66608;DHT22;53462;39.616;8.824;2023-12-29T13:10:31;16.00;92.40
66608;DHT22;53462;39.616;8.824;2023-12-29T13:12:57;16.00;92.90
66608;DHT22;53462;39.616;8.824;2023-12-29T13:15:23;16.10;92.80
66608;DHT22;53462;39.616;8.824;2023-12-29T13:17:51;16.00;92.30
66608;DHT22;53462;39.616;8.824;2023-12-29T13:20:17;16.20;93.00
66608;DHT22;53462;39.616;8.824;2023-12-29T13:22:43;16.30;92.40
66608;DHT22;53462;39.616;8.824;2023-12-29T13:25:10;16.10;91.40
66608;DHT22;53462;39.616;8.824;2023-12-29T13:27:39;16.10;91.30
66608;DHT22;53462;39.616;8.824;2023-12-29T13:30:06;16.00;92.50
66608;DHT22;53462;39.616;8.824;2023-12-29T13:32:32;16.20;92.10
66608;DHT22;53462;39.616;8.824;2023-12-29T13:37:48;16.40;92.70
66608;DHT22;53462;39.616;8.824;2023-12-29T13:40:17;16.60;92.10
66608;DHT22;53462;39.616;8.824;2023-12-29T13:42:50;16.60;91.40
66608;DHT22;53462;39.616;8.824;2023-12-29T13:45:19;16.80;90.20
66608;DHT22;53462;39.616;8.824;2023-12-29T13:47:46;17.30;89.20
66608;DHT22;53462;39.616;8.824;2023-12-29T13:50:12;17.80;83.10
66608;DHT22;53462;39.616;8.824;2023-12-29T13:52:38;17.50;84.20
66608;DHT22;53462;39.616;8.824;2023-12-29T13:55:05;18.90;81.70
66608;DHT22;53462;39.616;8.824;2023-12-29T13:57:35;20.20;72.10
66608;DHT22;53462;39.616;8.824;2023-12-29T14:00:33;20.80;71.80
66608;DHT22;53462;39.616;8.824;2023-12-29T14:03:06;23.30;61.80
66608;DHT22;53462;39.616;8.824;2023-12-29T14:05:39;24.00;58.50
66608;DHT22;53462;39.616;8.824;2023-12-29T14:08:09;24.00;57.60
66608;DHT22;53462;39.616;8.824;2023-12-29T14:10:36;24.60;56.80
66608;DHT22;53462;39.616;8.824;2023-12-29T14:13:11;20.50;65.50
66608;DHT22;53462;39.616;8.824;2023-12-29T14:15:39;18.30;75.60
66608;DHT22;53462;39.616;8.824;2023-12-29T14:20:59;16.80;84.80
66608;DHT22;53462;39.616;8.824;2023-12-29T14:23:26;16.70;85.60
66608;DHT22;53462;39.616;8.824;2023-12-29T14:25:52;16.40;86.70
66608;DHT22;53462;39.616;8.824;2023-12-29T14:28:20;16.50;87.70
66608;DHT22;53462;39.616;8.824;2023-12-29T14:30:49;16.70;86.70
66608;DHT22;53462;39.616;8.824;2023-12-29T14:33:16;16.70;87.00
66608;DHT22;53462;39.616;8.824;2023-12-29T14:35:42;16.60;86.10
66608;DHT22;53462;39.616;8.824;2023-12-29T14:38:08;16.70;86.20
66608;DHT22;53462;39.616;8.824;2023-12-29T14:40:34;16.50;86.30
66608;DHT22;53462;39.616;8.824;2023-12-29T14:43:02;16.50;86.70
66608;DHT22;53462;39.616;8.824;2023-12-29T14:45:28;16.40;87.60
66608;DHT22;53462;39.616;8.824;2023-12-29T14:48:00;16.30;87.50
66608;DHT22;53462;39.616;8.824;2023-12-29T14:50:26;16.10;88.40
66608;DHT22;53462;39.616;8.824;2023-12-29T14:52:52;16.00;89.10
66608;DHT22;53462;39.616;8.824;2023-12-29T14:55:18;15.90;89.60
66608;DHT22;53462;39.616;8.824;2023-12-29T14:57:46;15.90;90.10
66608;DHT22;53462;39.616;8.824;2023-12-29T15:00:12;16.00;90.60
66608;DHT22;53462;39.616;8.824;2023-12-29T15:02:38;15.90;90.60
66608;DHT22;53462;39.616;8.824;2023-12-29T15:05:04;15.80;90.90
66608;DHT22;53462;39.616;8.824;2023-12-29T15:07:30;15.70;91.30
66608;DHT22;53462;39.616;8.824;2023-12-29T15:09:57;15.60;92.10
66608;DHT22;53462;39.616;8.824;2023-12-29T15:12:23;15.60;92.80
66608;DHT22;53462;39.616;8.824;2023-12-29T15:14:49;15.60;93.00
66608;DHT22;53462;39.616;8.824;2023-12-29T15:17:14;15.60;93.30
66608;DHT22;53462;39.616;8.824;2023-12-29T15:19:40;15.50;93.70
66608;DHT22;53462;39.616;8.824;2023-12-29T15:22:06;15.60;94.10
66608;DHT22;53462;39.616;8.824;2023-12-29T15:24:32;15.50;94.40
66608;DHT22;53462;39.616;8.824;2023-12-29T15:26:58;15.50;94.50
66608;DHT22;53462;39.616;8.824;2023-12-29T15:29:24;15.60;94.60
66608;DHT22;53462;39.616;8.824;2023-12-29T15:31:50;15.50;94.50
66608;DHT22;53462;39.616;8.824;2023-12-29T15:34:15;15.40;94.70
66608;DHT22;53462;39.616;8.824;2023-12-29T15:36:42;15.40;94.80
66608;DHT22;53462;39.616;8.824;2023-12-29T15:39:08;15.30;95.30
66608;DHT22;53462;39.616;8.824;2023-12-29T15:41:34;15.20;95.70
66608;DHT22;53462;39.616;8.824;2023-12-29T15:44:00;15.10;96.40
66608;DHT22;53462;39.616;8.824;2023-12-29T15:46:29;15.10;96.60
66608;DHT22;53462;39.616;8.824;2023-12-29T15:48:55;15.00;97.00
66608;DHT22;53462;39.616;8.824;2023-12-29T15:51:23;15.00;97.20
66608;DHT22;53462;39.616;8.824;2023-12-29T15:53:49;15.00;97.70